• Join FlightAware (Why Join?)
  • Login
  • US Flag 
05:13PM EDT


 

Airport Tracker/Info


-or-


 

Live Flight TrackerFlight Track Log ✈ N618JB ✈ 14-Apr-2013 ✈ KDFW - KBOS

Flight Track Log - Related Links

Times and Time Zones

All times are in EDT time to prevent confusion due to time zone crossing. See the N618JB flight status page for this flight to view local times or setup timezone preferences in your user account.

Time Position Orientation Groundspeed Altitude Reporting Facility
EDT Latitude Longitude Course Direction KTS MPH feet Rate Location/Type
12:02PM 32.8333 -97.0167 64° Northeast 192 221 2,700  Level Dallas / Fort Worth TRACON
12:03PM 32.7833 -96.9833 151° Southeast 258 297 5,200 2,580 Climbing Dallas / Fort Worth TRACON
12:04PM 32.8518 -96.6807 52° Northeast  Level FlightAware Approximate
12:04PM 32.7667 -96.9000 103° East 296 341 7,900  Level Dallas / Fort Worth TRACON
12:05PM 32.9371 -96.5527 52° Northeast  Level FlightAware Approximate
12:06PM 33.0129 -96.4166 57° Northeast  Level FlightAware Approximate
12:06PM 32.8625 -96.6839 62° Northeast 357 411 12,600  Level Fort Worth Center
12:07PM 33.0829 -96.2761 64° Northeast  Level FlightAware Approximate
12:07PM 32.9206 -96.5917 53° Northeast 378 435 14,500  Level Fort Worth Center
12:08PM 32.9947 -96.4722 53° Northeast 401 461 16,900 2,160 Climbing Fort Worth Center
12:09PM 33.0586 -96.3700 53° Northeast 418 481 18,900 1,980 Climbing Fort Worth Center
12:10PM 33.1139 -96.2303 65° Northeast 424 488 20,900 1,740 Climbing Fort Worth Center
12:11PM 33.1522 -96.1008 70° East 437 503 22,400 1,380 Climbing Fort Worth Center
12:12PM 33.1983 -95.9389 71° East 456 525 23,800 1,260 Climbing Fort Worth Center
12:13PM 33.2444 -95.7892 70° East 475 547 25,000 600 Climbing Fort Worth Center
12:14PM 33.2844 -95.6417 72° East 475 547 25,000  Level Fort Worth Center
12:15PM 33.3200 -95.5067 72° East 470 541 25,000 300 Level Fort Worth Center
12:16PM 33.3678 -95.3589 69° East 470 541 25,700 900 Climbing Fort Worth Center
12:17PM 33.4150 -95.1911 71° East 475 547 26,900 1,200 Climbing Fort Worth Center
12:18PM 33.4622 -95.0356 70° East 481 554 28,200 1,140 Climbing Fort Worth Center
12:19PM 33.5031 -94.8775 73° East 489 563 29,200 1,320 Climbing Fort Worth Center
12:20PM 33.5497 -94.7167 71° East 499 574 30,900 1,440 Climbing Fort Worth Center
12:21PM 33.5944 -94.5658 70° East 491 565 32,100 1,140 Climbing Fort Worth Center
12:22PM 33.6367 -94.4072 72° East 491 565 33,200 900 Climbing Fort Worth Center
12:23PM 33.6850 -94.2508 70° East 491 565 34,000 840 Climbing Fort Worth Center
12:24PM 33.7478 -94.1036 63° Northeast 491 565 35,000 480 Climbing Fort Worth Center
12:25PM 33.8172 -93.9636 59° Northeast 486 559 35,000  Level Fort Worth Center
12:26PM 33.8600 -93.8817 58° Northeast 486 559 35,000  Level Memphis Center
12:27PM 33.9264 -93.7442 60° Northeast 480 552 35,000  Level Memphis Center
12:28PM 33.9972 -93.5992 59° Northeast 480 552 35,000  Level Memphis Center
12:29PM 34.0719 -93.4489 59° Northeast 480 552 35,000  Level Memphis Center
12:30PM 34.1400 -93.3083 60° Northeast 475 547 35,000  Level Memphis Center
12:31PM 34.2081 -93.1675 60° Northeast 481 554 35,000  Level Memphis Center
12:32PM 34.2756 -93.0292 59° Northeast 481 554 35,100  Climbing Memphis Center
12:33PM 34.3411 -92.8878 61° Northeast 481 554 35,000 -60 Descending Memphis Center
12:34PM 34.4064 -92.7511 60° Northeast 474 545 35,000  Level Memphis Center
12:35PM 34.4739 -92.6094 60° Northeast 474 545 35,000  Level Memphis Center
12:36PM 34.5411 -92.4675 60° Northeast 480 552 35,000  Level Memphis Center
12:37PM 34.6100 -92.3253 59° Northeast 480 552 35,000  Level Memphis Center
12:38PM 34.6769 -92.1856 60° Northeast 480 552 35,100  Climbing Memphis Center
12:39PM 34.7642 -92.0608 50° Northeast 480 552 35,100 -60 Level Memphis Center
12:40PM 34.8553 -91.9539 44° Northeast 486 559 35,000 -60 Descending Memphis Center
12:41PM 34.9486 -91.8317 47° Northeast 486 559 35,000  Level Memphis Center
12:42PM 35.0461 -91.7089 46° Northeast 491 565 35,000 -60 Level Memphis Center
12:43PM 35.1453 -91.5836 46° Northeast 496 571 34,900 -600 Descending Memphis Center
12:44PM 35.2403 -91.4553 48° Northeast 502 578 33,900 -900 Descending Memphis Center
12:45PM 35.3417 -91.3244 46° Northeast 507 583 33,100 -480 Descending Memphis Center
12:46PM 35.4553 -91.1803 46° Northeast 518 596 33,000 -60 Descending Memphis Center
12:47PM 35.5542 -91.0486 47° Northeast 518 596 33,000  Level Memphis Center
12:48PM 35.6547 -90.9167 47° Northeast 518 596 33,000  Level Memphis Center
12:49PM 35.7514 -90.7867 47° Northeast 517 595 33,000  Level Memphis Center
12:50PM 35.8497 -90.6517 48° Northeast 523 602 33,000  Level Memphis Center
12:51PM 35.9542 -90.5158 46° Northeast 528 608 33,100  Climbing Memphis Center
12:52PM 36.0564 -90.3775 48° Northeast 533 613 33,100  Level Memphis Center
12:53PM 36.1586 -90.2414 47° Northeast 538 619 33,100 -60 Level Memphis Center
12:54PM 36.2500 -90.1203 47° Northeast 538 619 33,000 -60 Descending Memphis Center
12:55PM 36.3519 -89.9833 47° Northeast 538 619 33,000  Level Memphis Center
12:56PM 36.4514 -89.8486 47° Northeast 538 619 33,000  Level Memphis Center
12:57PM 36.5531 -89.7086 48° Northeast 538 619 33,000  Level Memphis Center
12:58PM 36.6542 -89.5733 47° Northeast 538 619 33,000  Level Memphis Center
12:59PM 36.7533 -89.4350 48° Northeast 533 613 33,000  Level Memphis Center
01:00PM 36.8503 -89.2992 48° Northeast 533 613 33,000  Level Memphis Center
01:01PM 36.9489 -89.1603 48° Northeast 533 613 33,000  Level Memphis Center
01:02PM 37.0456 -89.0261 48° Northeast 527 606 33,000  Level Memphis Center
01:03PM 37.1461 -88.8867 48° Northeast 527 606 33,000  Level Memphis Center
01:04PM 37.2444 -88.7519 47° Northeast 527 606 33,000  Level Memphis Center
01:05PM 37.3425 -88.6117 49° Northeast 527 606 33,000  Level Memphis Center
01:07PM 37.5856 -88.2550 49° Northeast 534 615 33,100  Climbing Indianapolis Center
01:08PM 37.6811 -88.1192 48° Northeast 531 611 33,000 -60 Descending Indianapolis Center
01:09PM 37.7822 -87.9722 49° Northeast 535 616 33,000  Level Indianapolis Center
01:10PM 37.8794 -87.8314 49° Northeast 530 610 33,000  Level Indianapolis Center
01:11PM 37.9772 -87.6894 49° Northeast 532 612 33,000  Level Indianapolis Center
01:12PM 38.0703 -87.5397 52° Northeast 536 617 33,000  Level Indianapolis Center
01:14PM 38.1828 -87.3631 51° Northeast 533 613 33,000  Level Indianapolis Center
01:15PM 38.2767 -87.2139 51° Northeast 533 613 33,000  Level Indianapolis Center
01:16PM 38.3686 -87.0672 51° Northeast 537 618 33,000  Level Indianapolis Center
01:17PM 38.4714 -86.9033 51° Northeast 537 618 33,000  Level Indianapolis Center
01:18PM 38.5642 -86.7536 52° Northeast 535 616 33,000  Level Indianapolis Center
01:19PM 38.6575 -86.6033 51° Northeast 536 617 33,000  Level Indianapolis Center
01:20PM 38.7506 -86.4517 52° Northeast 538 619 33,100  Climbing Indianapolis Center
01:21PM 38.8433 -86.3006 52° Northeast 538 619 33,100 360 Level Indianapolis Center
01:22PM 38.9308 -86.1431 54° Northeast 538 619 33,900 780 Climbing Indianapolis Center
01:23PM 39.0125 -85.9747 58° Northeast 549 632 34,800 720 Climbing Indianapolis Center
01:24PM 39.0994 -85.8089 56° Northeast 555 639 35,500 720 Climbing Indianapolis Center
01:25PM 39.2033 -85.6061 56° Northeast 562 647 36,400 660 Climbing Indianapolis Center
01:26PM 39.2833 -85.4475 57° Northeast 567 652 36,900 240 Climbing Indianapolis Center
01:27PM 39.3717 -85.2753 56° Northeast 570 656 37,000  Climbing Indianapolis Center
01:28PM 39.4725 -85.0731 57° Northeast 569 655 37,000  Level Indianapolis Center
01:29PM 39.5592 -84.8978 57° Northeast 572 658 37,000  Level Indianapolis Center
01:30PM 39.6475 -84.7222 57° Northeast 575 662 37,000  Level Indianapolis Center
01:31PM 39.7344 -84.5475 57° Northeast 571 657 37,000  Level Indianapolis Center
01:32PM 39.8219 -84.3714 57° Northeast 575 662 37,000  Level Indianapolis Center
01:33PM 39.9075 -84.1953 58° Northeast 570 656 37,000  Level Indianapolis Center
01:34PM 39.9942 -84.0175 57° Northeast 572 658 37,000  Level Indianapolis Center
01:35PM 40.0803 -83.8392 58° Northeast 571 657 37,000  Level Indianapolis Center
01:36PM 40.1669 -83.6589 58° Northeast 572 658 37,000  Level Indianapolis Center
01:37PM 40.2522 -83.4783 58° Northeast 574 661 37,000  Level Indianapolis Center
01:38PM 40.3381 -83.2989 58° Northeast 572 658 37,000  Level Indianapolis Center
01:39PM 40.4372 -83.0900 58° Northeast 572 658 37,000  Level Indianapolis Center
01:40PM 40.5214 -82.9081 59° Northeast 575 662 37,000  Level Indianapolis Center
01:41PM 40.5969 -82.7481 58° Northeast 575 662 37,000  Level Indianapolis Center
01:42PM 40.6833 -82.5319 62° Northeast 570 656 37,100  Climbing Indianapolis Center
01:43PM 40.7503 -82.3378 65° Northeast 577 664 37,000 -60 Descending Indianapolis Center
01:44PM 40.8194 -82.1389 65° Northeast 571 657 37,000  Level Cleveland Center
01:45PM 40.8867 -81.9453 65° Northeast 571 657 37,100  Climbing Cleveland Center
01:46PM 40.9514 -81.7542 66° East 571 657 37,000 -60 Descending Cleveland Center
01:47PM 41.0156 -81.5600 66° East 571 657 37,000  Level Cleveland Center
01:48PM 41.0839 -81.3628 65° Northeast 580 667 37,000  Level Cleveland Center
01:49PM 41.1497 -81.1706 65° Northeast 580 667 37,000  Level Cleveland Center
01:50PM 41.2150 -80.9750 66° East 575 662 37,000  Level Cleveland Center
01:51PM 41.2781 -80.7847 66° East 570 656 37,000  Level Cleveland Center
01:52PM 41.3264 -80.5775 73° East 578 665 37,000  Level Cleveland Center
01:53PM 41.3761 -80.3756 72° East 578 665 37,000  Level Cleveland Center
01:54PM 41.4278 -80.1706 71° East 578 665 37,000  Level Cleveland Center
01:55PM 41.4667 -80.0067 72° East 578 665 37,000  Level Cleveland Center
01:56PM 41.5175 -79.7872 73° East 573 659 37,000  Level Cleveland Center
01:57PM 41.5658 -79.5814 73° East 573 659 37,000  Level Cleveland Center
01:58PM 41.6139 -79.3778 72° East 573 659 37,000  Level Cleveland Center
01:59PM 41.6656 -79.1544 73° East 578 665 37,000  Level Cleveland Center
02:00PM 41.7128 -78.9531 73° East 578 665 37,000  Level Cleveland Center
02:01PM 41.7517 -78.7683 74° East 578 665 37,000  Level Cleveland Center
02:02PM 41.7964 -78.5667 73° East 573 659 37,000  Level Cleveland Center
02:03PM 41.8447 -78.3617 72° East 573 659 37,100  Climbing Cleveland Center
02:04PM 41.8883 -78.1536 74° East 573 659 37,000 -60 Descending Cleveland Center
02:06PM 41.9800 -77.7292 74° East 566 651 37,000  Level New York Center
02:09PM 42.0681 -77.3214 74° East 582 670 37,100  Climbing Boston Center
02:10PM 42.1122 -77.1119 74° East 582 670 37,100 -60 Level Boston Center
02:11PM 42.1561 -76.9078 74° East 577 664 37,000 -60 Descending Boston Center
02:12PM 42.1994 -76.7033 74° East 572 658 37,000  Level Boston Center
02:13PM 42.2472 -76.4739 74° East 572 658 37,000  Level Boston Center
02:14PM 42.2808 -76.2906 76° East 567 652 37,100 -180 Climbing Boston Center
02:15PM 42.3208 -76.0881 75° East 561 646 36,700 -1,080 Descending Boston Center
02:16PM 42.3461 -75.8817 81° East 561 646 35,000 -900 Descending Boston Center
02:17PM 42.3586 -75.6658 85° East 566 651 35,000  Level Boston Center
02:18PM 42.3717 -75.4247 86° East 575 662 35,000  Level Boston Center
02:19PM 42.3872 -75.2175 84° East 575 662 35,000  Level Boston Center
02:20PM 42.4036 -74.9678 85° East 564 649 35,000 -60 Level Boston Center
02:21PM 42.4172 -74.7181 86° East 559 643 34,900  Descending Boston Center
02:22PM 42.4294 -74.5075 85° East 553 636 35,000  Climbing Boston Center
02:23PM 42.4436 -74.2997 85° East 553 636 35,000  Level Boston Center
02:24PM 42.4550 -74.0892 86° East 553 636 35,000  Level Boston Center
02:25PM 42.4664 -73.8783 86° East 553 636 35,000  Level Boston Center
02:26PM 42.4772 -73.6703 86° East 553 636 35,000  Level Boston Center
02:27PM 42.4856 -73.4592 87° East 553 636 35,100 -60 Climbing Boston Center
02:28PM 42.4953 -73.2650 86° East 560 644 34,900 -660 Descending Boston Center
02:29PM 42.5050 -73.0597 86° East 560 644 33,900 -1,020 Descending Boston Center
02:30PM 42.5142 -72.8625 86° East 542 624 32,900 -1,020 Descending Boston Center
02:31PM 42.5231 -72.6656 86° East 530 610 31,900 -1,140 Descending Boston Center
02:32PM 42.5297 -72.4739 87° East 520 598 30,700 -1,200 Descending Boston Center
02:33PM 42.5378 -72.2739 87° East 515 593 29,600 -2,220 Descending Boston Center
02:34PM 42.5458 -72.0850 87° East 515 593 26,400 -4,560 Descending Boston Center
02:35PM 42.5344 -71.8992 95° East 504 580 20,500 -6,360 Descending Boston Center
02:36PM 42.5125 -71.7022 99° East 492 566 13,400 -4,680 Descending Boston Center
02:37PM 42.5011 -71.5644 96° East 437 503 11,100 -1,320 Descending Boston Center
02:38PM 42.4875 -71.4181 97° East 369 425 10,900 -420 Descending Boston Center
02:38PM 42.4833 -71.3667 96° East 361 415 10,600 -1,020 Descending KA90
02:39PM 42.4667 -71.2667 103° East 323 372 9,700 -1,260 Descending KA90
02:40PM 42.4667 -71.1500 90° East 306 352 8,300 -1,260 Descending KA90
02:41PM 42.4500 -71.0500 103° East 268 308 7,200 -1,200 Descending KA90
02:42PM 42.4500 -70.9500 90° East 267 307 6,100 -900 Descending KA90
02:43PM 42.4500 -70.8500 90° East 245 282 5,500 -840 Descending KA90
02:44PM 42.4667 -70.7833 71° East 236 272 4,500 -1,020 Descending KA90
02:45PM 42.4314 -70.7383 137° Southeast 199 229 3,700 -900 Descending Boston Center
02:46PM 42.3922 -70.7731 213° Southwest 142 163 2,900 -900 Descending Boston Center
02:47PM 42.3892 -70.8350 266° West 100 115 2,000 -720 Descending Boston Center
02:48PM 42.3794 -70.8942 257° West 142 163 1,500 -600 Descending Boston Center
02:49PM 42.3717 -70.9367 256° West 142 163 900 -540 Descending Boston Center
02:50PM 42.3619 -70.9903 256° West 142 163 500 -420 Descending Boston Center
02:52PM 42.3500 -71.0000 257° West  Level FlightAware Approximate